Time;durP1;ratioP1;P1;durP2;ratioP2;P2;SDS_P1;SDS_P2;PMS_P1;PMS_P2;Temp;Humidity;BMP_temperature;BMP_pressure;BME280_temperature;BME280_humidity;BME280_pressure;Samples;Min_cycle;Max_cycle;Signal;HPM_P1;HPM_P2
2021/08/21 00:00:01;;;;;;;;;;;21.80;91.40;21.90;99578.00;;;;342717;28;95969;-94
2021/08/21 00:00:13;;;;;;;;;;;21.80;91.40;21.90;99577.00;;;;344725;28;83412;-95
2021/08/21 00:00:25;;;;;;;;;;;21.80;91.50;21.90;99578.00;;;;344024;28;96968;-95
2021/08/21 00:00:37;;;;;;;;;;;21.80;91.70;21.90;99573.00;;;;343551;28;82555;-94
2021/08/21 00:00:49;;;;;;;;;;;21.80;91.60;21.80;99579.00;;;;342548;28;96053;-94
2021/08/21 00:01:06;;;;;;;;;;;21.80;91.60;21.80;99576.00;;;;344905;28;83416;-94
2021/08/21 00:01:21;;;;;;;;;;;21.80;91.60;21.80;99584.00;;;;344126;28;96798;-95
2021/08/21 00:01:33;;;;;;;;;;;21.80;91.60;21.80;99582.00;;;;343453;28;83562;-94
2021/08/21 00:01:45;;;;;;;;;;;21.80;91.50;21.80;99569.00;;;;345524;28;95505;-94
2021/08/21 00:01:57;;;;;;;;;;;21.80;91.40;21.80;99580.00;;;;341941;28;83477;-94
2021/08/21 00:02:09;;;;;;;;;;;21.80;91.50;21.90;99573.00;;;;342039;28;96870;-94
2021/08/21 00:02:21;;;;;;;;;;;21.80;91.40;21.90;99577.00;;;;344817;28;84289;-95
2021/08/21 00:02:33;;;;;;;;;;;21.80;91.50;21.80;99578.00;;;;341998;28;96526;-94
2021/08/21 00:02:46;;;;;;;;;;;21.70;91.70;21.80;99579.00;;;;347688;28;83706;-95
2021/08/21 00:02:58;;;;;;;;;;;21.80;91.60;21.80;99573.00;;;;345475;28;96692;-94
2021/08/21 00:03:10;;;;;;;;;;;21.70;91.50;21.80;99567.00;;;;343420;28;82560;-94
2021/08/21 00:03:22;;;;;;;;;;;21.80;91.60;21.80;99576.00;;;;342784;28;97388;-95
2021/08/21 00:03:33;;;;;;;;;;;21.70;91.60;21.80;99576.00;;;;343458;28;83533;-94
2021/08/21 00:03:45;;;;;;;;;;;21.70;91.50;21.80;99577.00;;;;344048;28;96881;-94
2021/08/21 00:03:57;;;;;;;;;;;21.70;91.80;21.80;99575.00;;;;344798;28;83438;-94
2021/08/21 00:04:12;;;;;;;;;;;21.70;91.90;21.80;99575.00;;;;343990;28;96595;-94
2021/08/21 00:04:24;;;;;;;;;;;21.70;91.90;21.80;99572.00;;;;343559;28;83364;-94
2021/08/21 00:04:39;;;;;;;;;;;21.70;91.60;21.80;99581.00;;;;343976;28;96764;-96
2021/08/21 00:04:51;;;;;;;;;;;21.70;91.90;21.80;99579.00;;;;343479;28;83505;-94
2021/08/21 00:05:05;;;;;;;;;;;21.70;91.70;21.80;99585.00;;;;345408;28;96740;-94
2021/08/21 00:05:17;;;;;;;;;;;21.70;91.80;21.80;99574.00;;;;343450;28;83435;-95
2021/08/21 00:05:29;;;;;;;;;;;21.70;91.90;21.80;99571.00;;;;343970;28;96969;-94
2021/08/21 00:05:40;;;;;;;;;;;21.70;91.70;21.80;99576.00;;;;346169;28;83540;-95
2021/08/21 00:05:52;;;;;;;;;;;21.70;91.80;21.70;99570.00;;;;342709;28;96328;-94
2021/08/21 00:06:04;;;;;;;;;;;21.70;91.90;21.70;99571.00;;;;342043;28;83535;-95
2021/08/21 00:06:16;;;;;;;;;;;21.70;91.80;21.70;99580.00;;;;344124;28;95548;-94
2021/08/21 00:06:28;;;;;;;;;;;21.70;91.80;21.80;99574.00;;;;343507;28;82471;-94
2021/08/21 00:06:40;;;;;;;;;;;21.70;91.60;21.80;99582.00;;;;343762;28;97127;-95
2021/08/21 00:06:52;;;;;;;;;;;21.70;91.60;21.80;99576.00;;;;344837;28;82688;-95
2021/08/21 00:07:05;;;;;;;;;;;21.70;91.60;21.80;99578.00;;;;344000;28;95976;-95
2021/08/21 00:07:17;;;;;;;;;;;21.70;91.70;21.70;99580.00;;;;343425;28;83513;-95
2021/08/21 00:07:29;;;;;;;;;;;21.70;92.00;21.70;99584.00;;;;342609;28;97138;-95
2021/08/21 00:07:41;;;;;;;;;;;21.70;91.90;21.70;99581.00;;;;342084;28;83415;-94
2021/08/21 00:07:53;;;;;;;;;;;21.70;91.90;21.70;99578.00;;;;345375;28;95719;-94
2021/08/21 00:08:06;;;;;;;;;;;21.70;91.90;21.60;99581.00;;;;344381;28;82619;-94
2021/08/21 00:08:17;;;;;;;;;;;21.70;92.00;21.60;99581.00;;;;344153;28;96377;-93
2021/08/21 00:08:30;;;;;;;;;;;21.70;92.00;21.70;99578.00;;;;343451;28;83442;-95
2021/08/21 00:08:42;;;;;;;;;;;21.60;91.90;21.80;99586.00;;;;342590;28;96761;-95
2021/08/21 00:08:54;;;;;;;;;;;21.70;91.80;21.70;99589.00;;;;343382;28;84133;-94
2021/08/21 00:09:06;;;;;;;;;;;21.70;91.80;21.70;99586.00;;;;342685;28;95515;-94
2021/08/21 00:09:18;;;;;;;;;;;21.70;92.10;21.70;99584.00;;;;344788;28;83451;-95
2021/08/21 00:09:30;;;;;;;;;;;21.70;92.10;21.70;99585.00;;;;343994;28;95292;-94
2021/08/21 00:09:42;;;;;;;;;;;21.60;91.90;21.70;99582.00;;;;344852;28;83462;-95
2021/08/21 00:09:54;;;;;;;;;;;21.70;92.00;21.70;99588.00;;;;341339;28;94863;-95
2021/08/21 00:10:08;;;;;;;;;;;21.70;92.10;21.70;99592.00;;;;343379;28;82682;-95
2021/08/21 00:10:20;;;;;;;;;;;21.70;92.00;21.70;99586.00;;;;344010;28;96821;-94
2021/08/21 00:10:32;;;;;;;;;;;21.70;92.00;21.70;99583.00;;;;344849;28;83351;-94
2021/08/21 00:10:44;;;;;;;;;;;21.70;91.80;21.70;99587.00;;;;343982;28;96540;-94
2021/08/21 00:10:56;;;;;;;;;;;21.70;92.10;21.70;99588.00;;;;343417;28;83444;-94
2021/08/21 00:11:09;;;;;;;;;;;21.70;92.00;21.70;99584.00;;;;342740;28;96558;-94
2021/08/21 00:11:21;;;;;;;;;;;21.60;91.80;21.80;99582.00;;;;343554;28;83350;-95
2021/08/21 00:11:33;;;;;;;;;;;21.60;91.70;21.80;99584.00;;;;342655;28;97132;-94
2021/08/21 00:11:45;;;;;;;;;;;21.60;91.90;21.80;99586.00;;;;343498;28;82521;-94
2021/08/21 00:11:56;;;;;;;;;;;21.70;91.90;21.70;99586.00;;;;341400;28;95976;-94
2021/08/21 00:12:08;;;;;;;;;;;21.60;92.20;21.70;99588.00;;;;343468;28;83472;-94
2021/08/21 00:12:20;;;;;;;;;;;21.60;92.00;21.70;99586.00;;;;345574;28;95455;-94
2021/08/21 00:12:32;;;;;;;;;;;21.60;92.00;21.70;99585.00;;;;343528;28;82466;-93
2021/08/21 00:12:44;;;;;;;;;;;21.60;92.10;21.70;99592.00;;;;345285;28;96772;-93
2021/08/21 00:12:56;;;;;;;;;;;21.60;92.00;21.70;99589.00;;;;343511;28;83441;-94
2021/08/21 00:13:08;;;;;;;;;;;21.60;92.00;21.80;99588.00;;;;341397;28;95495;-94
2021/08/21 00:13:20;;;;;;;;;;;21.60;92.10;21.80;99594.00;;;;346175;28;83420;-94
2021/08/21 00:13:31;;;;;;;;;;;21.60;92.00;21.70;99590.00;;;;341324;28;96806;-94
2021/08/21 00:13:43;;;;;;;;;;;21.60;92.00;21.70;99596.00;;;;344977;28;83305;-94
2021/08/21 00:13:55;;;;;;;;;;;21.60;92.00;21.70;99596.00;;;;344142;28;96781;-94
2021/08/21 00:14:07;;;;;;;;;;;21.60;92.10;21.70;99590.00;;;;341838;28;82568;-95
2021/08/21 00:14:19;;;;;;;;;;;21.60;92.00;21.70;99592.00;;;;341461;28;97121;-94
2021/08/21 00:14:31;;;;;;;;;;;21.60;92.00;21.70;99592.00;;;;342138;28;83484;-94
2021/08/21 00:14:43;;;;;;;;;;;21.60;91.90;21.70;99588.00;;;;343979;28;96908;-94
2021/08/21 00:14:56;;;;;;;;;;;21.60;92.00;21.70;99592.00;;;;342123;28;82629;-94
2021/08/21 00:15:10;;;;;;;;;;;21.60;92.00;21.70;99592.00;;;;342713;28;96256;-95
2021/08/21 00:15:22;;;;;;;;;;;21.60;92.10;21.70;99594.00;;;;340767;28;83427;-94
2021/08/21 00:15:34;;;;;;;;;;;21.60;91.90;21.70;99589.00;;;;341378;28;97205;-93
2021/08/21 00:15:46;;;;;;;;;;;21.60;92.00;21.80;99588.00;;;;343459;28;83687;-94
2021/08/21 00:15:58;;;;;;;;;;;21.60;92.00;21.80;99586.00;;;;342693;28;95021;-94
2021/08/21 00:16:10;;;;;;;;;;;21.60;92.00;21.80;99585.00;;;;342048;28;83557;-95
2021/08/21 00:16:22;;;;;;;;;;;21.60;92.10;21.80;99590.00;;;;341314;28;97255;-94
2021/08/21 00:16:34;;;;;;;;;;;21.60;92.10;21.70;99587.00;;;;343471;28;83216;-94
2021/08/21 00:16:46;;;;;;;;;;;21.60;92.20;21.70;99593.00;;;;345248;28;95635;-95
2021/08/21 00:16:58;;;;;;;;;;;21.60;92.50;21.70;99596.00;;;;343474;28;83461;-94
2021/08/21 00:17:10;;;;;;;;;;;21.60;92.50;21.60;99597.00;;;;340006;28;95676;-95
2021/08/21 00:17:22;;;;;;;;;;;21.60;92.50;21.70;99586.00;;;;344796;28;83920;-94
2021/08/21 00:17:36;;;;;;;;;;;21.60;92.40;21.60;99577.00;;;;341349;28;95606;-94
2021/08/21 00:17:48;;;;;;;;;;;21.60;92.40;21.70;99593.00;;;;343561;28;83399;-95
2021/08/21 00:18:00;;;;;;;;;;;21.60;92.40;21.60;99589.00;;;;341237;28;96078;-94
2021/08/21 00:18:12;;;;;;;;;;;21.60;92.40;21.60;99589.00;;;;344751;28;83459;-94
2021/08/21 00:18:24;;;;;;;;;;;21.60;92.50;21.60;99581.00;;;;344089;28;96478;-95
2021/08/21 00:18:38;;;;;;;;;;;21.60;92.40;21.60;99588.00;;;;340803;28;82543;-94
2021/08/21 00:18:50;;;;;;;;;;;21.50;92.40;21.60;99582.00;;;;341175;28;98118;-94
2021/08/21 00:19:02;;;;;;;;;;;21.60;92.50;21.60;99582.00;;;;342105;28;83405;-94
2021/08/21 00:19:14;;;;;;;;;;;21.60;92.50;21.60;99587.00;;;;340019;28;95242;-94
2021/08/21 00:19:26;;;;;;;;;;;21.60;92.50;21.60;99590.00;;;;342067;28;83402;-94
2021/08/21 00:19:38;;;;;;;;;;;21.60;92.60;21.70;99586.00;;;;341266;28;96372;-95
2021/08/21 00:19:49;;;;;;;;;;;21.50;92.40;21.60;99585.00;;;;340739;28;83392;-94
2021/08/21 00:20:01;;;;;;;;;;;21.60;92.50;21.60;99587.00;;;;340105;28;95558;-95
2021/08/21 00:20:13;;;;;;;;;;;21.50;92.80;21.60;99583.00;;;;342305;28;82574;-95
2021/08/21 00:20:25;;;;;;;;;;;21.50;92.70;21.60;99587.00;;;;341392;28;94965;-94
2021/08/21 00:20:37;;;;;;;;;;;21.50;92.60;21.50;99576.00;;;;344777;28;83453;-94
2021/08/21 00:20:49;;;;;;;;;;;21.50;92.70;21.50;99582.00;;;;342503;28;97897;-95
2021/08/21 00:21:01;;;;;;;;;;;21.50;92.60;21.40;99585.00;;;;343590;28;82571;-95
2021/08/21 00:21:13;;;;;;;;;;;21.50;92.70;21.50;99583.00;;;;344075;28;95529;-94
2021/08/21 00:21:26;;;;;;;;;;;21.50;92.70;21.40;99577.00;;;;346256;28;82455;-95
2021/08/21 00:21:38;;;;;;;;;;;21.50;92.70;21.30;99584.00;;;;342671;28;96226;-94
2021/08/21 00:21:50;;;;;;;;;;;21.50;92.70;21.30;99584.00;;;;344811;28;82565;-95
2021/08/21 00:22:02;;;;;;;;;;;21.40;92.80;21.30;99576.00;;;;344073;28;95723;-94
2021/08/21 00:22:14;;;;;;;;;;;21.40;92.80;21.30;99588.00;;;;344791;28;82592;-95
2021/08/21 00:22:25;;;;;;;;;;;21.40;92.80;21.40;99584.00;;;;344105;28;96052;-95
2021/08/21 00:22:37;;;;;;;;;;;21.40;92.80;21.30;99582.00;;;;344845;28;83432;-94
2021/08/21 00:22:49;;;;;;;;;;;21.40;92.80;21.30;99581.00;;;;343881;28;97993;-95
2021/08/21 00:23:01;;;;;;;;;;;21.40;93.00;21.40;99579.00;;;;344816;28;82537;-95
2021/08/21 00:23:13;;;;;;;;;;;21.40;92.80;21.30;99579.00;;;;342693;28;97148;-95
2021/08/21 00:23:25;;;;;;;;;;;21.40;92.80;21.40;99579.00;;;;344712;28;83482;-93
2021/08/21 00:23:37;;;;;;;;;;;21.40;92.80;21.50;99587.00;;;;344134;28;93842;-94
2021/08/21 00:23:49;;;;;;;;;;;21.40;92.60;21.60;99581.00;;;;343479;28;83466;-94
2021/08/21 00:24:01;;;;;;;;;;;21.40;92.60;21.50;99573.00;;;;346857;28;96731;-94
2021/08/21 00:24:13;;;;;;;;;;;21.40;92.60;21.60;99582.00;;;;343351;28;83416;-94
2021/08/21 00:24:25;;;;;;;;;;;21.40;92.60;21.60;99584.00;;;;342717;28;95838;-94
2021/08/21 00:24:37;;;;;;;;;;;21.40;92.70;21.60;99590.00;;;;343487;28;83376;-94
2021/08/21 00:24:49;;;;;;;;;;;21.40;92.80;21.60;99586.00;;;;345311;28;97165;-95
2021/08/21 00:25:00;;;;;;;;;;;21.40;92.80;21.60;99588.00;;;;346248;28;83444;-94
2021/08/21 00:25:13;;;;;;;;;;;21.40;92.90;21.50;99577.00;;;;343885;28;95254;-94
2021/08/21 00:25:24;;;;;;;;;;;21.40;93.10;21.50;99582.00;;;;346195;28;83393;-94
2021/08/21 00:25:36;;;;;;;;;;;21.40;92.90;21.50;99577.00;;;;342814;28;95629;-95
2021/08/21 00:25:48;;;;;;;;;;;21.40;92.80;21.60;99580.00;;;;342165;28;82477;-95
2021/08/21 00:26:00;;;;;;;;;;;21.40;92.70;21.60;99582.00;;;;342047;28;95589;-95
2021/08/21 00:26:12;;;;;;;;;;;21.40;92.80;21.60;99581.00;;;;341968;28;82600;-94
2021/08/21 00:26:24;;;;;;;;;;;21.40;92.90;21.70;99575.00;;;;341335;28;97106;-95
2021/08/21 00:26:36;;;;;;;;;;;21.40;92.80;21.80;99569.00;;;;340838;28;82547;-95
2021/08/21 00:26:47;;;;;;;;;;;21.40;92.80;21.80;99576.00;;;;342556;28;98068;-94
2021/08/21 00:26:59;;;;;;;;;;;21.40;92.80;21.70;99578.00;;;;342093;28;83409;-94
2021/08/21 00:27:12;;;;;;;;;;;21.40;92.90;21.70;99584.00;;;;342764;28;95760;-95
2021/08/21 00:27:25;;;;;;;;;;;21.40;92.90;21.50;99566.00;;;;344786;28;83404;-93
2021/08/21 00:27:38;;;;;;;;;;;21.40;93.00;21.50;99575.00;;;;344038;28;96247;-94
2021/08/21 00:27:49;;;;;;;;;;;21.40;93.30;21.40;99575.00;;;;343431;28;83526;-94
2021/08/21 00:28:02;;;;;;;;;;;21.40;93.20;21.40;99565.00;;;;344112;28;95849;-94
2021/08/21 00:28:15;;;;;;;;;;;21.40;93.20;21.50;99578.00;;;;344787;28;83518;-94
2021/08/21 00:28:26;;;;;;;;;;;21.40;93.10;21.50;99574.00;;;;342715;28;96451;-94
2021/08/21 00:28:38;;;;;;;;;;;21.40;93.10;21.40;99573.00;;;;346263;28;83413;-94
2021/08/21 00:28:50;;;;;;;;;;;21.40;93.10;21.40;99567.00;;;;345274;28;97124;-95
2021/08/21 00:29:02;;;;;;;;;;;21.40;93.10;21.40;99570.00;;;;341972;28;82522;-94
2021/08/21 00:29:14;;;;;;;;;;;21.40;93.10;21.50;99569.00;;;;342692;28;95925;-93
2021/08/21 00:29:26;;;;;;;;;;;21.40;92.90;21.40;99572.00;;;;342104;28;83461;-95
2021/08/21 00:29:38;;;;;;;;;;;21.40;93.00;21.50;99565.00;;;;342762;28;95323;-94
2021/08/21 00:29:50;;;;;;;;;;;21.40;93.00;21.40;99576.00;;;;342144;28;82538;-95
2021/08/21 00:30:03;;;;;;;;;;;21.40;93.20;21.50;99574.00;;;;341386;28;95748;-95
2021/08/21 00:30:15;;;;;;;;;;;21.40;93.00;21.40;99574.00;;;;342240;28;82503;-94
2021/08/21 00:30:27;;;;;;;;;;;21.40;93.10;21.40;99571.00;;;;345183;28;95658;-94
2021/08/21 00:30:39;;;;;;;;;;;21.40;93.00;21.50;99567.00;;;;342130;28;83512;-94
2021/08/21 00:30:51;;;;;;;;;;;21.40;92.90;21.50;99569.00;;;;342563;28;96542;-96
2021/08/21 00:31:05;;;;;;;;;;;21.40;92.80;21.50;99573.00;;;;346172;28;83287;-94
2021/08/21 00:31:17;;;;;;;;;;;21.30;92.80;21.40;99568.00;;;;340083;28;95653;-95
2021/08/21 00:31:29;;;;;;;;;;;21.30;92.80;21.40;99573.00;;;;344763;28;83460;-95
2021/08/21 00:31:41;;;;;;;;;;;21.30;93.00;21.40;99574.00;;;;342646;28;96864;-94
2021/08/21 00:31:53;;;;;;;;;;;21.30;92.90;21.40;99574.00;;;;341972;28;83444;-94
2021/08/21 00:32:05;;;;;;;;;;;21.30;92.90;21.40;99579.00;;;;342250;28;96346;-94
2021/08/21 00:32:17;;;;;;;;;;;21.40;93.00;21.40;99577.00;;;;344725;28;83489;-95
2021/08/21 00:32:31;;;;;;;;;;;21.30;93.20;21.40;99574.00;;;;339950;28;95880;-95
2021/08/21 00:32:43;;;;;;;;;;;21.30;93.00;21.40;99572.00;;;;343485;28;82525;-93
2021/08/21 00:32:55;;;;;;;;;;;21.30;92.80;21.30;99567.00;;;;342564;28;97554;-95
2021/08/21 00:33:06;;;;;;;;;;;21.30;93.00;21.40;99567.00;;;;344335;28;82580;-95
2021/08/21 00:33:18;;;;;;;;;;;21.30;92.90;21.30;99574.00;;;;342632;28;95421;-95
2021/08/21 00:33:30;;;;;;;;;;;21.30;93.20;21.30;99574.00;;;;346192;28;82558;-94
2021/08/21 00:33:42;;;;;;;;;;;21.30;93.30;21.30;99568.00;;;;344101;28;95910;-94
2021/08/21 00:33:54;;;;;;;;;;;21.30;93.30;21.20;99571.00;;;;346186;28;83469;-95
2021/08/21 00:34:06;;;;;;;;;;;21.30;93.20;21.20;99576.00;;;;344052;28;95510;-95
2021/08/21 00:34:18;;;;;;;;;;;21.30;93.30;21.20;99582.00;;;;344891;28;83375;-94
2021/08/21 00:34:30;;;;;;;;;;;21.30;93.30;21.20;99573.00;;;;346914;28;96314;-94
2021/08/21 00:34:42;;;;;;;;;;;21.30;93.30;21.30;99578.00;;;;346280;28;83350;-94
2021/08/21 00:34:54;;;;;;;;;;;21.30;93.20;21.30;99575.00;;;;343913;28;96150;-94
2021/08/21 00:35:06;;;;;;;;;;;21.20;93.20;21.30;99574.00;;;;344733;28;83470;-94
2021/08/21 00:35:18;;;;;;;;;;;21.20;93.10;21.40;99566.00;;;;341252;28;95895;-94
2021/08/21 00:35:30;;;;;;;;;;;21.20;92.90;21.40;99566.00;;;;346138;28;83499;-94
2021/08/21 00:35:42;;;;;;;;;;;21.30;92.90;21.30;99568.00;;;;344147;28;97086;-94
2021/08/21 00:35:53;;;;;;;;;;;21.30;93.00;21.30;99568.00;;;;344772;28;82555;-94
2021/08/21 00:36:05;;;;;;;;;;;21.20;93.20;21.30;99577.00;;;;345284;28;96677;-95
2021/08/21 00:36:17;;;;;;;;;;;21.20;93.20;21.20;99567.00;;;;342186;28;82515;-95
2021/08/21 00:36:29;;;;;;;;;;;21.20;93.20;21.20;99575.00;;;;344077;28;95437;-94
2021/08/21 00:36:41;;;;;;;;;;;21.20;93.40;21.20;99571.00;;;;346224;28;82506;-95
2021/08/21 00:36:53;;;;;;;;;;;21.20;93.40;21.20;99574.00;;;;345348;28;96895;-94
2021/08/21 00:37:05;;;;;;;;;;;21.20;93.50;21.20;99574.00;;;;346242;28;82441;-95
2021/08/21 00:37:17;;;;;;;;;;;21.20;93.50;21.20;99575.00;;;;345383;28;96404;-93
2021/08/21 00:37:29;;;;;;;;;;;21.20;93.40;21.20;99574.00;;;;344721;28;83520;-94
2021/08/21 00:37:40;;;;;;;;;;;21.20;93.60;21.20;99572.00;;;;345434;28;97100;-95
2021/08/21 00:37:52;;;;;;;;;;;21.20;93.60;21.10;99573.00;;;;346131;28;83377;-94
2021/08/21 00:38:05;;;;;;;;;;;21.20;93.50;21.20;99574.00;;;;345328;28;95130;-94
2021/08/21 00:38:17;;;;;;;;;;;21.20;93.40;21.20;99572.00;;;;342621;28;83496;-94
2021/08/21 00:38:29;;;;;;;;;;;21.20;93.40;21.20;99570.00;;;;343779;28;94121;-94
2021/08/21 00:38:41;;;;;;;;;;;21.20;93.30;21.20;99578.00;;;;343462;28;83429;-94
2021/08/21 00:38:53;;;;;;;;;;;21.20;93.10;21.20;99566.00;;;;342673;28;96499;-94
2021/08/21 00:39:05;;;;;;;;;;;21.20;93.50;21.20;99571.00;;;;344846;28;83387;-94
2021/08/21 00:39:21;;;;;;;;;;;21.20;93.50;21.10;99574.00;;;;342693;28;96352;-95
2021/08/21 00:39:33;;;;;;;;;;;21.10;93.60;21.10;99569.00;;;;343419;28;83434;-94
2021/08/21 00:39:44;;;;;;;;;;;21.10;93.60;21.10;99574.00;;;;341333;28;97272;-95
2021/08/21 00:39:56;;;;;;;;;;;21.10;93.50;21.10;99573.00;;;;342129;28;83377;-94
2021/08/21 00:40:09;;;;;;;;;;;21.10;93.60;21.10;99571.00;;;;342672;28;96061;-93
2021/08/21 00:40:20;;;;;;;;;;;21.10;93.50;21.10;99576.00;;;;342056;28;82572;-94
2021/08/21 00:40:33;;;;;;;;;;;21.10;93.50;21.20;99577.00;;;;341310;28;97661;-94
2021/08/21 00:40:47;;;;;;;;;;;21.10;93.30;21.20;99580.00;;;;343420;28;82562;-94
2021/08/21 00:40:59;;;;;;;;;;;21.10;93.20;21.20;99571.00;;;;343873;28;97880;-94
2021/08/21 00:41:11;;;;;;;;;;;21.10;93.10;21.20;99573.00;;;;344787;28;83372;-95
2021/08/21 00:41:23;;;;;;;;;;;21.10;93.00;21.30;99578.00;;;;339902;28;95969;-94
2021/08/21 00:41:35;;;;;;;;;;;21.10;93.10;21.20;99581.00;;;;342178;28;82537;-93
2021/08/21 00:41:47;;;;;;;;;;;21.10;93.20;21.20;99570.00;;;;341342;28;95833;-95
2021/08/21 00:41:59;;;;;;;;;;;21.10;93.30;21.20;99573.00;;;;340703;28;83481;-93
2021/08/21 00:42:11;;;;;;;;;;;21.10;93.40;21.20;99571.00;;;;341297;28;96547;-95
2021/08/21 00:42:23;;;;;;;;;;;21.10;93.40;21.20;99574.00;;;;343421;28;83439;-94
2021/08/21 00:42:34;;;;;;;;;;;21.10;93.30;21.20;99577.00;;;;342563;28;97156;-93
2021/08/21 00:42:46;;;;;;;;;;;21.10;93.20;21.20;99570.00;;;;343373;28;82566;-94
2021/08/21 00:42:58;;;;;;;;;;;21.10;93.10;21.20;99570.00;;;;341204;28;97895;-95
2021/08/21 00:43:10;;;;;;;;;;;21.10;93.40;21.20;99575.00;;;;346178;28;82549;-93
2021/08/21 00:43:22;;;;;;;;;;;21.10;93.60;21.10;99571.00;;;;343928;28;96496;-94
2021/08/21 00:43:38;;;;;;;;;;;21.10;93.50;21.20;99571.00;;;;340649;28;83402;-94
2021/08/21 00:43:50;;;;;;;;;;;21.10;93.50;21.20;99573.00;;;;342772;28;96368;-94
2021/08/21 00:44:02;;;;;;;;;;;21.10;93.30;21.20;99569.00;;;;343318;28;82716;-94
2021/08/21 00:44:15;;;;;;;;;;;21.10;93.20;21.20;99574.00;;;;339973;28;96876;-94
2021/08/21 00:44:27;;;;;;;;;;;21.10;93.10;21.20;99573.00;;;;339438;28;83354;-94
2021/08/21 00:44:39;;;;;;;;;;;21.10;93.40;21.20;99572.00;;;;341130;28;95913;-93
2021/08/21 00:44:51;;;;;;;;;;;21.10;93.50;21.20;99571.00;;;;343479;28;83461;-95
2021/08/21 00:45:04;;;;;;;;;;;21.10;93.50;21.20;99572.00;;;;342635;28;97660;-94
2021/08/21 00:45:16;;;;;;;;;;;21.10;93.60;21.20;99572.00;;;;342119;28;83313;-95
2021/08/21 00:45:28;;;;;;;;;;;21.10;93.60;21.20;99572.00;;;;339927;28;96935;-94
2021/08/21 00:45:40;;;;;;;;;;;21.10;93.30;21.10;99573.00;;;;342093;28;83475;-94
2021/08/21 00:45:52;;;;;;;;;;;21.10;93.40;21.10;99576.00;;;;342702;28;95754;-94
2021/08/21 00:46:04;;;;;;;;;;;21.10;93.50;21.10;99566.00;;;;343337;28;82518;-94
2021/08/21 00:46:17;;;;;;;;;;;21.10;93.70;21.10;99570.00;;;;341366;28;93070;-94
2021/08/21 00:46:29;;;;;;;;;;;21.10;93.80;21.10;99567.00;;;;342038;28;83441;-95
2021/08/21 00:47:01;;;;;;;;;;;21.10;93.80;21.00;99570.00;;;;339939;28;96575;-93
2021/08/21 00:47:20;;;;;;;;;;;21.10;93.70;21.00;99573.00;;;;341744;28;83449;-95
2021/08/21 00:47:32;;;;;;;;;;;21.00;93.60;21.10;99570.00;;;;341141;28;97865;-95
2021/08/21 00:47:44;;;;;;;;;;;21.00;93.70;21.20;99571.00;;;;339350;28;83492;-94
2021/08/21 00:47:56;;;;;;;;;;;21.00;93.50;21.20;99578.00;;;;342612;28;96009;-95
2021/08/21 00:48:08;;;;;;;;;;;21.00;93.60;21.10;99569.00;;;;344791;28;83563;-95
2021/08/21 00:48:20;;;;;;;;;;;21.00;93.80;21.00;99567.00;;;;340031;28;95525;-94
2021/08/21 00:48:31;;;;;;;;;;;21.00;93.80;21.10;99565.00;;;;340682;28;82581;-94
2021/08/21 00:48:43;;;;;;;;;;;21.00;93.70;21.10;99570.00;;;;341340;28;96716;-94
2021/08/21 00:48:55;;;;;;;;;;;21.00;93.80;21.10;99576.00;;;;344745;28;83423;-94
2021/08/21 00:49:07;;;;;;;;;;;21.00;93.70;21.10;99577.00;;;;341326;28;95002;-94
2021/08/21 00:49:19;;;;;;;;;;;21.00;93.50;21.10;99570.00;;;;343359;28;83458;-93
2021/08/21 00:49:32;;;;;;;;;;;21.00;93.50;21.10;99566.00;;;;342388;28;98325;-93
2021/08/21 00:49:51;;;;;;;;;;;21.00;93.70;21.00;99571.00;;;;343513;28;83367;-94
2021/08/21 00:50:04;;;;;;;;;;;21.00;93.60;21.00;99568.00;;;;342614;28;96408;-94
2021/08/21 00:50:16;;;;;;;;;;;21.00;93.70;21.00;99562.00;;;;342133;28;83489;-95
2021/08/21 00:50:28;;;;;;;;;;;21.00;93.80;21.00;99574.00;;;;342680;28;96526;-94
2021/08/21 00:50:42;;;;;;;;;;;21.00;93.80;21.00;99578.00;;;;343346;28;84202;-95
2021/08/21 00:50:54;;;;;;;;;;;21.00;93.80;21.00;99570.00;;;;341324;28;97345;-94
2021/08/21 00:51:05;;;;;;;;;;;21.00;93.70;21.10;99576.00;;;;343381;28;82613;-95
2021/08/21 00:51:18;;;;;;;;;;;21.00;93.60;21.10;99574.00;;;;341331;28;95958;-94
2021/08/21 00:51:30;;;;;;;;;;;21.00;93.60;21.20;99565.00;;;;343397;28;82615;-94
2021/08/21 00:51:41;;;;;;;;;;;21.00;93.50;21.20;99571.00;;;;344044;28;96441;-94
2021/08/21 00:51:54;;;;;;;;;;;21.00;93.50;21.20;99569.00;;;;342152;28;82482;-94
2021/08/21 00:52:09;;;;;;;;;;;21.00;93.50;21.10;99567.00;;;;342616;28;94787;-94
2021/08/21 00:52:23;;;;;;;;;;;21.00;93.70;21.10;99576.00;;;;343373;28;82526;-95
2021/08/21 00:52:35;;;;;;;;;;;21.00;93.70;21.10;99573.00;;;;343984;28;96876;-94
2021/08/21 00:52:47;;;;;;;;;;;21.00;93.50;21.00;99571.00;;;;342068;28;83439;-94
2021/08/21 00:52:59;;;;;;;;;;;21.00;93.70;21.00;99568.00;;;;341383;28;95802;-95
2021/08/21 00:53:11;;;;;;;;;;;21.00;93.90;21.00;99568.00;;;;341970;28;82658;-94
2021/08/21 00:53:23;;;;;;;;;;;21.00;93.90;21.00;99568.00;;;;342611;28;96166;-93
2021/08/21 00:53:35;;;;;;;;;;;21.00;93.80;21.00;99566.00;;;;343012;28;82606;-94
2021/08/21 00:53:47;;;;;;;;;;;21.00;93.80;21.20;99570.00;;;;342677;28;96572;-96
2021/08/21 00:53:59;;;;;;;;;;;21.00;93.60;21.10;99560.00;;;;344485;28;83500;-93
2021/08/21 00:54:11;;;;;;;;;;;21.00;93.60;21.20;99566.00;;;;342641;28;95563;-94
2021/08/21 00:54:23;;;;;;;;;;;21.00;93.70;21.30;99566.00;;;;344854;28;82604;-94
2021/08/21 00:54:35;;;;;;;;;;;21.00;93.60;21.20;99568.00;;;;344044;28;95720;-94
2021/08/21 00:54:47;;;;;;;;;;;21.00;93.60;21.20;99576.00;;;;346129;28;83412;-94
2021/08/21 00:54:59;;;;;;;;;;;21.00;93.60;21.10;99570.00;;;;345474;28;96925;-95
2021/08/21 00:55:11;;;;;;;;;;;21.00;93.70;21.10;99573.00;;;;344675;28;82591;-94
2021/08/21 00:55:24;;;;;;;;;;;21.00;93.60;21.10;99580.00;;;;342558;28;96009;-94
2021/08/21 00:55:36;;;;;;;;;;;21.00;93.70;21.10;99570.00;;;;343416;28;82598;-94
2021/08/21 00:55:49;;;;;;;;;;;21.00;93.70;21.10;99569.00;;;;341325;28;97734;-95
2021/08/21 00:56:03;;;;;;;;;;;21.00;93.60;21.10;99568.00;;;;343533;28;83441;-94
2021/08/21 00:56:15;;;;;;;;;;;21.00;93.50;21.10;99567.00;;;;339962;28;96764;-94
2021/08/21 00:56:27;;;;;;;;;;;21.00;93.70;21.10;99564.00;;;;340707;28;83353;-94
2021/08/21 00:56:39;;;;;;;;;;;21.00;94.00;21.00;99566.00;;;;341272;28;94780;-96
2021/08/21 00:56:51;;;;;;;;;;;21.00;94.00;21.00;99568.00;;;;343410;28;82511;-94
2021/08/21 00:57:03;;;;;;;;;;;21.00;93.90;21.00;99566.00;;;;342595;28;95607;-94
2021/08/21 00:57:16;;;;;;;;;;;21.00;93.70;21.10;99569.00;;;;340727;28;82552;-95
2021/08/21 00:57:28;;;;;;;;;;;21.00;93.70;21.10;99571.00;;;;342369;28;95314;-95
2021/08/21 00:57:40;;;;;;;;;;;21.00;93.80;21.10;99564.00;;;;341844;28;83444;-95
2021/08/21 00:57:53;;;;;;;;;;;21.00;93.90;21.10;99565.00;;;;341110;28;96064;-95
2021/08/21 00:58:06;;;;;;;;;;;21.00;93.80;21.10;99577.00;;;;344500;28;83784;-94
2021/08/21 00:58:19;;;;;;;;;;;21.00;93.60;21.10;99572.00;;;;344038;28;96219;-94
2021/08/21 00:58:32;;;;;;;;;;;21.00;93.60;21.10;99565.00;;;;340697;28;83434;-95
2021/08/21 00:58:44;;;;;;;;;;;21.00;93.60;21.10;99574.00;;;;342436;28;95424;-95
2021/08/21 00:58:56;;;;;;;;;;;21.00;93.70;21.00;99565.00;;;;344912;28;83439;-95
2021/08/21 00:59:09;;;;;;;;;;;21.00;93.80;20.90;99561.00;;;;341813;28;94645;-94
2021/08/21 00:59:21;;;;;;;;;;;21.00;93.80;21.00;99565.00;;;;343541;28;83472;-95
2021/08/21 00:59:33;;;;;;;;;;;21.00;93.80;21.10;99568.00;;;;344079;28;95638;-95
2021/08/21 00:59:48;;;;;;;;;;;21.00;93.70;21.10;99563.00;;;;343399;28;82562;-94
2021/08/21 01:00:00;;;;;;;;;;;21.00;93.50;21.10;99571.00;;;;343716;28;96990;-94
2021/08/21 01:00:12;;;;;;;;;;;21.00;93.60;21.10;99571.00;;;;343362;28;83573;-95
2021/08/21 01:00:24;;;;;;;;;;;21.00;93.60;21.10;99569.00;;;;344087;28;96795;-94
2021/08/21 01:00:36;;;;;;;;;;;21.00;93.80;21.00;99568.00;;;;342000;28;83438;-95
2021/08/21 01:00:52;;;;;;;;;;;21.00;94.00;21.00;99572.00;;;;343949;28;96414;-94